Guatemala City, Guatemala
Current Conditions -  °F | °C
As of 2:00 AM on Monday 26 Jan 2015 (Local Time) from MGGT Reporting Station
Broken Clouds Broken Clouds  
Wind Chill: 55°   Ceiling: 1600
Heat Index: 55°   Visibility: 6mi
Dew Point: 52°   Wind: 16mph
Humidity: 88%   Direction: 20°NNE
Pressure: 30.3"   Gusts: NA
Location:  14.58°N, 90.52°W
Report Text: MGGT 260800Z 02014KT 9999 FEW006 BKN016 13/11 Q1026 A3030
Loading
Personal Weather Stations






























Interactive Weather Map New forecast layout! Learn more

10-Day Weather Forecast

Advertisements
Track Severe Weather on mobile